Data for 04/22/2017

Time Sea-Level Adjusted Pressure Absolute Pressure Temperature Relative Humidity Dew Point   
(mb) (inHg) (mb) (inHg) (C) (F) (%) (C) (F)
00:05 1026 30.3 855 25.25 2.7 36.9 85 0.4 32.8
00:10 1026 30.3 855 25.25 2.6 36.7 86 0.6 33
00:15 1026 30.3 855 25.25 2.6 36.6 87 0.6 33.1
00:20 1026 30.3 855 25.25 2.5 36.5 87 0.6 33.1
00:25 1026 30.3 855 25.25 2.4 36.3 88 0.6 33.1
00:30 1026 30.3 855 25.25 2.4 36.3 88 0.6 33.1
00:35 1026 30.3 855 25.25 2.4 36.2 87 0.4 32.8
00:40 1026 30.3 856 25.28 2.3 36.2 86 0.2 32.3
00:45 1026 30.3 856 25.28 2.3 36.1 85 0.1 32.1
00:50 1026 30.3 856 25.28 2.2 36 85 -0.1 31.9
00:55 1026 30.3 856 25.28 2.2 35.9 84 -0.2 31.7
01:00 1026 30.3 856 25.28 2.2 35.9 84 -0.2 31.6
01:05 1026 30.3 856 25.28 2.2 35.9 83 -0.3 31.4
01:10 1026 30.3 856 25.28 2.2 35.9 83 -0.5 31.1
01:15 1026 30.3 856 25.28 2.1 35.8 82 -0.6 31
01:20 1026 30.3 856 25.28 2.1 35.8 82 -0.6 30.9
01:25 1026 30.3 856 25.28 2.1 35.9 82 -0.6 30.9
01:30 1026 30.3 856 25.28 2.1 35.8 82 -0.7 30.7
01:35 1026 30.3 856 25.28 2.1 35.8 82 -0.7 30.7
01:40 1026 30.3 855 25.25 2.1 35.7 81 -0.9 30.4
01:45 1026 30.3 855 25.25 2 35.7 80 -1 30.2
01:50 1026 30.3 855 25.25 2 35.6 80 -1 30.2
01:55 1026 30.3 855 25.25 1.9 35.5 82 -0.9 30.4
02:00 1026 30.3 855 25.25 1.8 35.3 82 -1 30.2
02:05 1026 30.3 855 25.25 1.8 35.2 82 -1 30.2
02:10 1026 30.3 855 25.25 1.7 35.1 82 -1 30.2
02:15 1026 30.3 855 25.25 1.7 35.1 82 -0.9 30.3
02:20 1026 30.3 855 25.25 1.8 35.2 83 -0.9 30.4
02:25 1026 30.3 855 25.25 1.8 35.3 82 -1 30.2
02:30 1026 30.3 855 25.25 2 35.5 81 -1 30.3
02:35 1026 30.3 855 25.25 2 35.7 80 -1 30.2
02:40 1026 30.3 855 25.25 2.1 35.8 81 -0.9 30.4
02:45 1026 30.3 855 25.25 2.2 35.9 80 -0.9 30.4
02:50 1026 30.3 855 25.25 2.2 36 80 -0.8 30.6
02:55 1026 30.3 855 25.25 2.3 36.2 80 -0.8 30.5
03:00 1026 30.3 855 25.25 2.3 36.2 80 -0.7 30.7
03:05 1026 30.3 855 25.25 2.3 36.2 81 -0.6 31
03:10 1026 30.3 855 25.25 2.4 36.2 83 -0.3 31.5
03:15 1026 30.3 855 25.25 2.3 36.1 83 -0.4 31.3
03:20 1026 30.3 855 25.25 2.2 35.9 83 -0.4 31.3
03:25 1026 30.3 855 25.25 2.1 35.9 83 -0.5 31.1
03:30 1026 30.3 855 25.25 2.2 35.9 82 -0.6 31
03:35 1026 30.3 855 25.25 2.1 35.9 81 -0.8 30.6
03:40 1026 30.3 855 25.25 2.1 35.8 82 -0.7 30.7
03:45 1026 30.3 855 25.25 2.2 35.9 82 -0.6 30.9
03:50 1026 30.3 855 25.25 2.2 36 83 -0.4 31.2
03:55 1026 30.3 855 25.25 2.1 35.9 85 -0.1 31.9
04:00 1026 30.3 855 25.25 2 35.7 86 -0 32
04:05 1026 30.3 855 25.25 2 35.6 86 -0.1 31.8
04:10 1026 30.3 855 25.25 2 35.7 85 -0.2 31.7
04:15 1026 30.3 855 25.25 2.1 35.8 84 -0.4 31.3
04:20 1026 30.3 855 25.25 2.1 35.8 82 -0.6 30.8
04:25 1026 30.3 855 25.25 2.1 35.8 81 -0.8 30.6
04:30 1026 30.3 856 25.28 2 35.6 82 -0.8 30.6
04:35 1026 30.3 856 25.28 1.9 35.4 82 -0.8 30.5
04:40 1026 30.3 856 25.28 1.9 35.4 82 -0.9 30.4
04:45 1026 30.3 856 25.28 1.9 35.4 82 -0.9 30.4
04:50 1026 30.3 856 25.28 2 35.5 82 -0.8 30.5
04:55 1026 30.3 856 25.28 2 35.5 82 -0.8 30.6
05:00 1026 30.3 856 25.28 1.9 35.5 82 -0.9 30.4
05:05 1026 30.3 855 25.25 1.8 35.3 82 -0.9 30.4
05:10 1026 30.3 855 25.25 1.6 34.9 83 -1 30.2
05:15 1026 30.3 855 25.25 1.5 34.6 83 -1.1 30.1
05:20 1026 30.3 855 25.25 1.4 34.4 84 -1.1 30
05:25 1026 30.3 855 25.25 1.2 34.2 84 -1.2 29.9
05:30 1026 30.3 855 25.25 1.1 34 84 -1.2 29.8
05:35 1026 30.3 855 25.25 1.1 34 84 -1.3 29.7
05:40 1026 30.3 855 25.25 1.1 33.9 84 -1.3 29.6
05:45 1026 30.3 855 25.25 0.9 33.6 85 -1.4 29.5
05:50 1026 30.3 855 25.25 0.7 33.3 86 -1.4 29.5
05:55 1026 30.3 855 25.25 0.6 33.1 86 -1.5 29.2
06:00 1026 30.3 855 25.25 0.4 32.8 87 -1.5 29.3
06:05 1026 30.3 855 25.25 0.5 33 85 -1.6 29.1
06:10 1026 30.3 855 25.25 0.8 33.4 85 -1.5 29.3
06:15 1025 30.27 855 25.25 0.8 33.4 84 -1.6 29.1
06:20 1025 30.27 855 25.25 0.6 33.1 85 -1.6 29.1
06:25 1025 30.27 854 25.22 0.5 32.9 86 -1.6 29.1
06:30 1025 30.27 854 25.22 0.3 32.5 87 -1.7 28.9
06:35 1025 30.27 854 25.22 0.3 32.6 86 -1.7 28.9
06:40 1025 30.27 854 25.22 0.6 33.1 84 -1.8 28.8
06:45 1025 30.27 854 25.22 0.7 33.2 83 -1.8 28.7
06:50 1025 30.27 854 25.22 0.9 33.6 82 -1.8 28.8
06:55 1025 30.27 854 25.22 1 33.8 81 -1.8 28.7
07:00 1025 30.27 854 25.22 1.3 34.3 80 -1.8 28.8
07:05 1025 30.27 855 25.25 1.1 34 81 -1.8 28.8
07:10 1025 30.27 855 25.25 1 33.9 82 -1.7 29
07:15 1025 30.27 855 25.25 1.1 34 83 -1.5 29.3
07:20 1025 30.27 854 25.22 1.3 34.3 82 -1.4 29.5
07:25 1025 30.27 854 25.22 1.3 34.4 82 -1.4 29.4
07:30 1025 30.27 854 25.22 1.4 34.6 82 -1.4 29.6
07:35 1025 30.27 854 25.22 1.5 34.6 82 -1.2 29.8
07:40 1025 30.27 854 25.22 1.6 34.8 81 -1.3 29.6
07:45 1025 30.27 854 25.22 1.8 35.3 80 -1.2 29.8
07:50 1025 30.27 854 25.22 2 35.6 79 -1.3 29.7
07:55 1025 30.27 854 25.22 2.2 36 78 -1.2 29.8
08:00 1025 30.27 854 25.22 2.5 36.5 77 -1.1 30.1
08:05 1025 30.27 854 25.22 2.6 36.6 77 -1.1 30
08:10 1025 30.27 854 25.22 2.7 36.9 76 -1.1 30
08:15 1024 30.24 854 25.22 2.8 37.1 75 -1.1 30.1
08:20 1024 30.24 853 25.19 2.8 37 76 -1.1 30
08:25 1024 30.24 853 25.19 3 37.4 74 -1.1 30
08:30 1024 30.24 853 25.19 3.1 37.5 75 -0.9 30.4
08:35 1024 30.24 853 25.19 3.2 37.7 74 -1 30.1
08:40 1024 30.24 853 25.19 3.3 37.9 73 -1 30.2
08:45 1024 30.24 853 25.19 3.3 38 74 -0.9 30.4
08:50 1024 30.24 853 25.19 3.8 38.9 72 -0.7 30.7
08:55 1024 30.24 853 25.19 3.7 38.6 69 -1.4 29.5
09:00 1024 30.24 853 25.19 4 39.2 68 -1.3 29.6
09:05 1024 30.24 853 25.19 4.3 39.7 68 -1.1 30
09:10 1024 30.24 853 25.19 4.6 40.3 66 -1.2 29.9
09:15 1023 30.21 853 25.19 4.7 40.4 65 -1.3 29.7
09:20 1023 30.21 853 25.19 5 41 64 -1.3 29.6
09:25 1023 30.21 853 25.19 5.4 41.8 64 -0.9 30.5
09:30 1023 30.21 853 25.19 5.9 42.7 62 -0.8 30.6
09:35 1023 30.21 853 25.19 5.6 42.1 62 -1.1 30
09:40 1023 30.21 853 25.19 6 42.9 57 -1.9 28.7
09:45 1023 30.21 853 25.19 6.8 44.3 61 -0.2 31.7
09:50 1023 30.21 853 25.19 6 42.8 66 0 32.1
09:55 1023 30.21 853 25.19 6.3 43.4 62 -0.4 31.3
10:00 1023 30.21 853 25.19 6.2 43.2 62 -0.6 30.9
10:05 1023 30.21 853 25.19 6.3 43.3 62 -0.5 31
10:10 1023 30.21 852 25.16 6.1 42.9 63 -0.5 31.1
10:15 1023 30.21 852 25.16 6.9 44.5 59 -0.6 30.9
10:20 1023 30.21 852 25.16 7.4 45.4 57 -0.4 31.2
10:25 1023 30.21 852 25.16 8 46.5 56 -0.3 31.5
10:30 1023 30.21 852 25.16 8 46.5 56 -0.2 31.6
10:35 1023 30.21 852 25.16 8.1 46.5 53 -0.9 30.4
10:40 1023 30.21 852 25.16 8.2 46.7 55 -0.4 31.3
10:45 1023 30.21 852 25.16 7.2 44.9 56 -0.9 30.4
10:50 1023 30.21 852 25.16 7.3 45.2 55 -1.1 29.9
10:55 1023 30.21 852 25.16 7.4 45.3 55 -1 30.2
11:00 1023 30.21 852 25.16 8.5 47.2 52 -0.8 30.5
11:05 1023 30.21 852 25.16 9 48.3 52 -0.3 31.5
11:10 1022 30.18 852 25.16 9 48.1 50 -0.7 30.7
11:15 1022 30.18 852 25.16 8.8 47.8 51 -0.9 30.4
11:20 1022 30.18 852 25.16 9.3 48.8 49 -0.7 30.8
11:25 1022 30.18 851 25.13 9.5 49.1 50 -0.5 31.2
11:30 1022 30.18 851 25.13 9.3 48.7 49 -1 30.3
11:35 1022 30.18 851 25.13 8.9 47.9 49 -1.2 29.8
11:40 1022 30.18 851 25.13 8.9 48.1 49 -1.3 29.7
11:45 1022 30.18 851 25.13 8.9 48.1 52 -0.4 31.3
11:50 1022 30.18 851 25.13 8.6 47.5 49 -1.5 29.3
11:55 1021 30.15 851 25.13 9.8 49.7 46 -1.3 29.6
12:00 1021 30.15 851 25.13 9.9 49.7 47 -1 30.2
12:05 1021 30.15 850 25.1 9.7 49.4 49 -0.6 30.9
12:10 1021 30.15 850 25.1 9.6 49.2 50 -0.3 31.5
12:15 1021 30.15 850 25.1 9.6 49.3 49 -0.6 31
12:20 1021 30.15 850 25.1 9.5 49.1 48 -0.8 30.6
12:25 1021 30.15 850 25.1 10.4 50.7 48 0 32
12:30 1020 30.12 850 25.1 11.2 52.1 45 -0.2 31.7
12:35 1020 30.12 850 25.1 10.8 51.4 49 0.4 32.8
12:40 1020 30.12 849 25.07 10.5 50.9 48 -0 32
12:45 1020 30.12 849 25.07 10.5 50.9 49 0.2 32.4
12:50 1020 30.12 849 25.07 10.6 51.1 45 -0.7 30.7
12:55 1020 30.12 849 25.07 11.7 53 41 -1 30.1
13:00 1020 30.12 849 25.07 12 53.5 42 -0.6 30.9
13:05 1020 30.12 849 25.07 12 53.5 42 -0.6 30.8
13:10 1020 30.12 849 25.07 12.1 53.7 40 -1.1 30.1
13:15 1020 30.12 849 25.07 12.7 54.9 36 -1.9 28.6
13:20 1020 30.12 849 25.07 13.5 56.3 39 -0.2 31.7
13:25 1020 30.12 849 25.07 12.6 54.7 38 -1.2 29.8
13:30 1020 30.12 849 25.07 13.6 56.4 38 -0.5 31.1
13:35 1020 30.12 849 25.07 13.7 56.7 40 0.5 32.8
13:40 1020 30.12 849 25.07 13.4 56.2 40 0.2 32.3
13:45 1020 30.12 849 25.07 13.6 56.4 41 0.6 33.1
13:50 1020 30.12 849 25.07 13.3 56 40 0.2 32.3
13:55 1020 30.12 849 25.07 13 55.4 43 0.6 33.1
14:00 1019 30.09 849 25.07 13 55.4 42 0.3 32.5
14:05 1019 30.09 848 25.04 13.7 56.6 42 1.1 34
14:10 1019 30.09 848 25.04 13.3 56 40 0.2 32.3
14:15 1019 30.09 848 25.04 13.4 56 41 0.4 32.8
14:20 1019 30.09 848 25.04 13.8 56.8 39 0.2 32.4
14:25 1019 30.09 848 25.04 13.3 55.9 40 0.2 32.3
14:30 1019 30.09 848 25.04 13.5 56.2 41 0.6 33.1
14:35 1019 30.09 848 25.04 13.9 57 39 0.1 32.2
14:40 1019 30.09 848 25.04 13.4 56.2 42 0.8 33.5
14:45 1019 30.09 848 25.04 13.3 56 39 -0.3 31.4
14:50 1019 30.09 848 25.04 13.9 57 39 0.1 32.1
14:55 1018 30.06 848 25.04 13.9 57 38 0 32
15:00 1018 30.06 848 25.04 13.5 56.3 38 -0.5 31
15:05 1018 30.06 847 25.01 14.6 58.2 35 -0.5 31.1
15:10 1018 30.06 847 25.01 14.7 58.5 36 -0.1 31.8
15:15 1018 30.06 847 25.01 13.7 56.6 36 -1.2 29.9
15:20 1018 30.06 847 25.01 14 57.1 36 -0.7 30.7
15:25 1018 30.06 847 25.01 14.3 57.7 34 -1.2 29.9
15:30 1018 30.06 847 25.01 14.6 58.2 36 -0.4 31.3
15:35 1017 30.03 847 25.01 14 57.2 37 -0.3 31.5
15:40 1017 30.03 847 25.01 14.4 58 33 -1.6 29.1
15:45 1017 30.03 846 24.98 15.1 59.3 32 -1.3 29.7
15:50 1017 30.03 846 24.98 14.9 58.8 33 -1.3 29.7
15:55 1017 30.03 846 24.98 15.3 59.6 32 -1.3 29.7
16:00 1017 30.03 846 24.98 15.2 59.3 33 -0.9 30.4
16:05 1017 30.03 846 24.98 15.2 59.3 31 -1.5 29.2
16:10 1017 30.03 846 24.98 15.7 60.2 30 -1.9 28.6
16:15 1017 30.03 846 24.98 16.2 61.2 28 -2.4 27.7
16:20 1017 30.03 846 24.98 16.1 61 29 -1.9 28.5
16:25 1016 30 846 24.98 15.9 60.6 29 -2.2 28.1
16:30 1016 30 846 24.98 15.9 60.7 30 -1.7 28.9
16:35 1016 30 845 24.95 15.3 59.6 31 -1.8 28.8
16:40 1016 30 845 24.95 15 59 31 -2.1 28.2
16:45 1016 30 845 24.95 15.4 59.7 29 -2.4 27.7
16:50 1016 30 845 24.95 15.8 60.4 29 -2.2 28
16:55 1016 30 845 24.95 16.4 61.5 29 -1.7 28.9
17:00 1016 30 845 24.95 16.6 61.8 29 -1.6 29.1
17:05 1016 30 845 24.95 15.7 60.2 30 -1.8 28.7
17:10 1016 30 845 24.95 15.4 59.8 29 -2.4 27.7
17:15 1016 30 845 24.95 15.5 59.9 28 -2.8 27
17:20 1016 30 845 24.95 16.1 61 27 -2.8 26.9
17:25 1016 30 845 24.95 16.6 62 26 -2.7 27.1
17:30 1016 30 845 24.95 16.2 61.2 27 -2.7 27.1
17:35 1016 30 845 24.95 16.4 61.5 27 -2.5 27.4
17:40 1016 30 845 24.95 16.2 61.2 27 -2.8 26.9
17:45 1016 30 845 24.95 16.2 61.2 26 -3 26.6
17:50 1016 30 845 24.95 16.2 61.2 26 -3.4 25.9
17:55 1016 30 845 24.95 16.3 61.3 26 -3.3 26
18:00 1016 30 845 24.95 16.8 62.3 25 -3.1 26.5
18:05 1016 30 845 24.95 16.7 62 26 -2.7 27.2
18:10 1016 30 845 24.95 16.3 61.3 28 -2.2 28
18:15 1016 30 845 24.95 15.9 60.5 28 -2.6 27.4
18:20 1016 30 845 24.95 15.6 60 28 -3 26.7
18:25 1016 30 845 24.95 15.1 59.2 28 -3.3 26.1
18:30 1015 29.97 845 24.95 15.5 59.8 27 -3.2 26.3
18:35 1015 29.97 845 24.95 15.3 59.5 28 -2.8 26.9
18:40 1015 29.97 844 24.92 15.2 59.4 28 -3.2 26.3
18:45 1015 29.97 844 24.92 14.7 58.4 29 -3.2 26.3
18:50 1015 29.97 844 24.92 14.4 57.9 29 -3.2 26.3
18:55 1015 29.97 844 24.92 14.3 57.7 29 -3.5 25.6
19:00 1015 29.97 844 24.92 14.5 58.2 29 -3.3 26
19:05 1015 29.97 844 24.92 14.3 57.8 31 -2.7 27.2
19:10 1015 29.97 844 24.92 14.1 57.3 32 -2.4 27.6
19:15 1015 29.97 844 24.92 14 57.2 32 -2.4 27.6
19:20 1015 29.97 844 24.92 13.8 56.9 32 -2.4 27.7
19:25 1015 29.97 844 24.92 13.8 56.8 33 -2.2 28
19:30 1015 29.97 844 24.92 13.8 56.8 32 -2.7 27.2
19:35 1015 29.97 844 24.92 13.7 56.6 32 -2.7 27.2
19:40 1015 29.97 844 24.92 13.6 56.5 32 -2.8 27
19:45 1015 29.97 844 24.92 13.6 56.4 32 -2.8 26.9
19:50 1015 29.97 844 24.92 13.5 56.2 30 -3.7 25.4
19:55 1015 29.97 844 24.92 13.5 56.2 31 -3.3 26
20:00 1015 29.97 844 24.92 13.4 56.1 31 -3.3 26.1
20:05 1015 29.97 845 24.95 13.3 56 33 -2.7 27.2
20:10 1015 29.97 845 24.95 13.1 55.6 29 -4.6 23.6
20:15 1015 29.97 845 24.95 12.9 55.1 41 -0 31.9
20:20 1015 29.97 845 24.95 12.4 54.2 43 0.1 32.1
20:25 1016 30 845 24.95 11.7 53.1 45 0.3 32.6
20:30 1016 30 845 24.95 11.3 52.4 46 0.1 32.2
20:35 1016 30 845 24.95 11 51.8 47 0.1 32.2
20:40 1015 29.97 845 24.95 10.7 51.3 46 -0.2 31.6
20:45 1015 29.97 845 24.95 10.2 50.3 46 -0.8 30.6
20:50 1015 29.97 845 24.95 10.2 50.3 49 0 32.1
20:55 1015 29.97 845 24.95 9.8 49.7 45 -1.4 29.4
21:00 1015 29.97 845 24.95 9.7 49.5 46 -1.3 29.6
21:05 1015 29.97 845 24.95 9.5 49 45 -1.8 28.7
21:10 1016 30 845 24.95 9.4 49 46 -1.6 29.2
21:15 1015 29.97 845 24.95 9.6 49.3 36 -4.6 23.7
21:20 1015 29.97 845 24.95 10 50 39 -3.2 26.3
21:25 1016 30 845 24.95 10 50 39 -3.3 26.1
21:30 1016 30 845 24.95 10.1 50.2 36 -4.2 24.4
21:35 1016 30 845 24.95 10.2 50.4 36 -4.3 24.3
21:40 1016 30 845 24.95 10.2 50.3 36 -4.1 24.6
21:45 1016 30 845 24.95 9.9 49.9 36 -4.5 23.8
21:50 1016 30 845 24.95 9.8 49.6 35 -4.9 23.1
21:55 1016 30 845 24.95 9.8 49.7 34 -5.1 22.9
22:00 1016 30 845 24.95 9.9 49.7 34 -5.1 22.9
22:05 1016 30 845 24.95 9.9 49.8 34 -5.2 22.7
22:10 1016 30 845 24.95 9.8 49.6 35 -4.8 23.4
22:15 1016 30 845 24.95 9.7 49.4 36 -4.8 23.4
22:20 1016 30 845 24.95 9.4 49 36 -4.9 23.2
22:25 1016 30 845 24.95 9.5 49 37 -4.4 24.1
22:30 1016 30 845 24.95 9.1 48.5 41 -3.4 25.9
22:35 1016 30 845 24.95 8.8 47.8 42 -3.3 26
22:40 1016 30 845 24.95 8.7 47.7 42 -3.3 26
22:45 1016 30 845 24.95 8.6 47.5 43 -3.2 26.2
22:50 1016 30 845 24.95 8.6 47.5 43 -3.2 26.3
22:55 1016 30 845 24.95 8.7 47.6 43 -3.1 26.4
23:00 1016 30 845 24.95 8.6 47.6 44 -2.9 26.8
23:05 1016 30 845 24.95 8.6 47.4 44 -2.8 26.9
23:10 1016 30 845 24.95 8.5 47.2 45 -2.8 27
23:15 1016 30 845 24.95 8.3 47 46 -2.7 27.2
23:20 1016 30 845 24.95 8.2 46.8 47 -2.5 27.5
23:25 1016 30 845 24.95 8.2 46.8 47 -2.4 27.7
23:30 1016 30 845 24.95 7.9 46.3 49 -2.2 28.1
23:35 1016 30 845 24.95 7.7 45.9 49 -2.2 28
23:40 1016 30 845 24.95 7.7 45.9 47 -2.8 27
23:45 1016 30 845 24.95 7.8 46 47 -2.8 26.9
23:50 1015 29.97 845 24.95 7.7 45.9 48 -2.7 27.2
23:55 1015 29.97 845 24.95 7.6 45.7 48 -2.6 27.3
24:00 1015 29.97 845 24.95 7.5 45.5 48 -2.8 27